sensor_id;sensor_type;location;lat;lon;timestamp;temperature;humidity
35246;DHT22;21379;50.962;6.960;2023-04-24T00:02:06;12.10;99.90
35246;DHT22;21379;50.962;6.960;2023-04-24T00:04:36;12.10;99.90
35246;DHT22;21379;50.962;6.960;2023-04-24T00:07:06;12.10;99.90
35246;DHT22;21379;50.962;6.960;2023-04-24T00:09:33;12.00;99.90
35246;DHT22;21379;50.962;6.960;2023-04-24T00:12:00;12.00;99.90
35246;DHT22;21379;50.962;6.960;2023-04-24T00:14:28;12.00;99.90
35246;DHT22;21379;50.962;6.960;2023-04-24T00:16:55;12.10;99.90
35246;DHT22;21379;50.962;6.960;2023-04-24T00:19:22;12.00;99.90
35246;DHT22;21379;50.962;6.960;2023-04-24T00:21:50;12.00;99.90
35246;DHT22;21379;50.962;6.960;2023-04-24T00:24:17;12.00;99.90
35246;DHT22;21379;50.962;6.960;2023-04-24T00:26:44;12.00;99.90
35246;DHT22;21379;50.962;6.960;2023-04-24T00:29:11;11.90;99.90
35246;DHT22;21379;50.962;6.960;2023-04-24T00:31:39;11.90;99.90
35246;DHT22;21379;50.962;6.960;2023-04-24T00:34:06;11.90;99.90
35246;DHT22;21379;50.962;6.960;2023-04-24T00:36:33;11.90;99.90
35246;DHT22;21379;50.962;6.960;2023-04-24T00:39:02;11.90;99.90
35246;DHT22;21379;50.962;6.960;2023-04-24T00:41:29;11.90;99.90
35246;DHT22;21379;50.962;6.960;2023-04-24T00:43:56;11.90;99.90
35246;DHT22;21379;50.962;6.960;2023-04-24T00:46:23;11.90;99.90
35246;DHT22;21379;50.962;6.960;2023-04-24T00:48:50;11.90;99.90
35246;DHT22;21379;50.962;6.960;2023-04-24T00:51:18;12.00;99.90
35246;DHT22;21379;50.962;6.960;2023-04-24T00:53:46;12.00;99.90
35246;DHT22;21379;50.962;6.960;2023-04-24T00:56:15;12.00;99.90
35246;DHT22;21379;50.962;6.960;2023-04-24T00:58:42;12.00;99.90
35246;DHT22;21379;50.962;6.960;2023-04-24T01:01:09;11.90;99.90
35246;DHT22;21379;50.962;6.960;2023-04-24T01:03:37;11.90;99.90
35246;DHT22;21379;50.962;6.960;2023-04-24T01:06:05;11.90;99.90
35246;DHT22;21379;50.962;6.960;2023-04-24T01:08:32;11.90;99.90
35246;DHT22;21379;50.962;6.960;2023-04-24T01:11:03;11.90;99.90
35246;DHT22;21379;50.962;6.960;2023-04-24T01:13:33;11.90;99.90
35246;DHT22;21379;50.962;6.960;2023-04-24T01:16:01;11.80;99.90
35246;DHT22;21379;50.962;6.960;2023-04-24T01:18:28;11.80;99.90
35246;DHT22;21379;50.962;6.960;2023-04-24T01:20:58;11.80;99.90
35246;DHT22;21379;50.962;6.960;2023-04-24T01:23:26;11.70;99.90
35246;DHT22;21379;50.962;6.960;2023-04-24T01:25:54;11.70;99.90
35246;DHT22;21379;50.962;6.960;2023-04-24T01:28:21;11.70;99.90
35246;DHT22;21379;50.962;6.960;2023-04-24T01:30:48;11.70;99.90
35246;DHT22;21379;50.962;6.960;2023-04-24T01:33:15;11.70;99.90
35246;DHT22;21379;50.962;6.960;2023-04-24T01:35:42;11.60;99.90
35246;DHT22;21379;50.962;6.960;2023-04-24T01:38:09;11.60;99.90
35246;DHT22;21379;50.962;6.960;2023-04-24T01:40:38;11.60;99.90
35246;DHT22;21379;50.962;6.960;2023-04-24T01:43:05;11.50;99.90
35246;DHT22;21379;50.962;6.960;2023-04-24T01:45:32;11.40;99.90
35246;DHT22;21379;50.962;6.960;2023-04-24T01:48:00;11.30;99.90
35246;DHT22;21379;50.962;6.960;2023-04-24T01:50:28;11.20;99.90
35246;DHT22;21379;50.962;6.960;2023-04-24T01:52:55;11.20;99.90
35246;DHT22;21379;50.962;6.960;2023-04-24T01:55:22;11.10;99.90
35246;DHT22;21379;50.962;6.960;2023-04-24T01:57:50;11.00;99.90
35246;DHT22;21379;50.962;6.960;2023-04-24T02:00:18;10.90;99.90
35246;DHT22;21379;50.962;6.960;2023-04-24T02:02:45;10.80;99.90
35246;DHT22;21379;50.962;6.960;2023-04-24T02:05:12;10.70;99.90
35246;DHT22;21379;50.962;6.960;2023-04-24T02:07:40;10.70;99.90
35246;DHT22;21379;50.962;6.960;2023-04-24T02:10:08;10.60;99.90
35246;DHT22;21379;50.962;6.960;2023-04-24T02:12:36;10.50;99.90
35246;DHT22;21379;50.962;6.960;2023-04-24T02:15:05;10.40;99.90
35246;DHT22;21379;50.962;6.960;2023-04-24T02:17:32;10.30;99.90
35246;DHT22;21379;50.962;6.960;2023-04-24T02:19:59;10.30;99.90
35246;DHT22;21379;50.962;6.960;2023-04-24T02:22:26;10.20;99.90
35246;DHT22;21379;50.962;6.960;2023-04-24T02:24:53;10.10;99.90
35246;DHT22;21379;50.962;6.960;2023-04-24T02:27:20;10.10;99.90
35246;DHT22;21379;50.962;6.960;2023-04-24T02:29:46;10.00;99.90
35246;DHT22;21379;50.962;6.960;2023-04-24T02:32:15;9.90;99.90
35246;DHT22;21379;50.962;6.960;2023-04-24T02:34:42;9.80;99.90
35246;DHT22;21379;50.962;6.960;2023-04-24T02:37:09;9.80;99.90
35246;DHT22;21379;50.962;6.960;2023-04-24T02:39:36;9.80;99.90
35246;DHT22;21379;50.962;6.960;2023-04-24T02:42:03;9.80;99.90
35246;DHT22;21379;50.962;6.960;2023-04-24T02:44:31;9.80;99.90
35246;DHT22;21379;50.962;6.960;2023-04-24T02:46:58;9.80;99.90
35246;DHT22;21379;50.962;6.960;2023-04-24T02:49:26;9.70;99.90
35246;DHT22;21379;50.962;6.960;2023-04-24T02:51:53;9.80;99.90
35246;DHT22;21379;50.962;6.960;2023-04-24T02:54:20;9.80;99.90
35246;DHT22;21379;50.962;6.960;2023-04-24T02:56:47;9.80;99.90
35246;DHT22;21379;50.962;6.960;2023-04-24T02:59:14;9.90;99.90
35246;DHT22;21379;50.962;6.960;2023-04-24T03:01:41;9.90;99.90
35246;DHT22;21379;50.962;6.960;2023-04-24T03:04:08;9.90;99.90
35246;DHT22;21379;50.962;6.960;2023-04-24T03:06:37;10.00;99.90
35246;DHT22;21379;50.962;6.960;2023-04-24T03:09:04;10.00;99.90
35246;DHT22;21379;50.962;6.960;2023-04-24T03:11:31;10.00;99.90
35246;DHT22;21379;50.962;6.960;2023-04-24T03:13:58;10.00;99.90
35246;DHT22;21379;50.962;6.960;2023-04-24T03:16:25;10.00;99.90
35246;DHT22;21379;50.962;6.960;2023-04-24T03:18:54;10.00;99.90
35246;DHT22;21379;50.962;6.960;2023-04-24T03:21:23;10.00;99.90
35246;DHT22;21379;50.962;6.960;2023-04-24T03:23:53;9.90;99.90
35246;DHT22;21379;50.962;6.960;2023-04-24T03:26:20;9.90;99.90
35246;DHT22;21379;50.962;6.960;2023-04-24T03:29:06;9.90;99.90
35246;DHT22;21379;50.962;6.960;2023-04-24T03:31:33;9.90;99.90
35246;DHT22;21379;50.962;6.960;2023-04-24T03:34:00;9.90;99.90
35246;DHT22;21379;50.962;6.960;2023-04-24T03:36:27;9.90;99.90
35246;DHT22;21379;50.962;6.960;2023-04-24T03:38:55;9.90;99.90
35246;DHT22;21379;50.962;6.960;2023-04-24T03:41:32;9.90;99.90
35246;DHT22;21379;50.962;6.960;2023-04-24T03:44:18;9.80;99.90
35246;DHT22;21379;50.962;6.960;2023-04-24T03:46:45;9.80;99.90
35246;DHT22;21379;50.962;6.960;2023-04-24T03:49:12;9.70;99.90
35246;DHT22;21379;50.962;6.960;2023-04-24T03:51:42;9.70;99.90
35246;DHT22;21379;50.962;6.960;2023-04-24T03:54:18;9.60;99.90
35246;DHT22;21379;50.962;6.960;2023-04-24T03:56:45;9.70;99.90
35246;DHT22;21379;50.962;6.960;2023-04-24T03:59:12;9.70;99.90
35246;DHT22;21379;50.962;6.960;2023-04-24T04:01:41;9.70;99.90
35246;DHT22;21379;50.962;6.960;2023-04-24T04:04:14;9.70;99.90
35246;DHT22;21379;50.962;6.960;2023-04-24T04:06:42;9.70;99.90
35246;DHT22;21379;50.962;6.960;2023-04-24T04:09:10;9.70;99.90
35246;DHT22;21379;50.962;6.960;2023-04-24T04:11:39;9.70;99.90
35246;DHT22;21379;50.962;6.960;2023-04-24T04:14:06;9.70;99.90
35246;DHT22;21379;50.962;6.960;2023-04-24T04:16:34;9.70;99.90
35246;DHT22;21379;50.962;6.960;2023-04-24T04:19:03;9.70;99.90
35246;DHT22;21379;50.962;6.960;2023-04-24T04:21:31;9.70;99.90
35246;DHT22;21379;50.962;6.960;2023-04-24T04:24:08;9.70;99.90
35246;DHT22;21379;50.962;6.960;2023-04-24T04:26:40;9.70;99.90
35246;DHT22;21379;50.962;6.960;2023-04-24T04:29:12;9.80;99.90
35246;DHT22;21379;50.962;6.960;2023-04-24T04:31:42;9.70;99.90
35246;DHT22;21379;50.962;6.960;2023-04-24T04:34:12;9.80;99.90
35246;DHT22;21379;50.962;6.960;2023-04-24T04:36:40;9.80;99.90
35246;DHT22;21379;50.962;6.960;2023-04-24T04:39:37;9.80;99.90
35246;DHT22;21379;50.962;6.960;2023-04-24T04:42:13;9.80;99.90
35246;DHT22;21379;50.962;6.960;2023-04-24T04:44:42;9.80;99.90
35246;DHT22;21379;50.962;6.960;2023-04-24T04:47:16;9.80;99.90
35246;DHT22;21379;50.962;6.960;2023-04-24T04:49:43;9.80;99.90
35246;DHT22;21379;50.962;6.960;2023-04-24T04:52:17;9.90;99.90
35246;DHT22;21379;50.962;6.960;2023-04-24T04:54:47;9.90;99.90
35246;DHT22;21379;50.962;6.960;2023-04-24T04:57:15;9.90;99.90
35246;DHT22;21379;50.962;6.960;2023-04-24T04:59:43;9.90;99.90
35246;DHT22;21379;50.962;6.960;2023-04-24T05:02:16;9.90;99.90
35246;DHT22;21379;50.962;6.960;2023-04-24T05:04:43;9.90;99.90
35246;DHT22;21379;50.962;6.960;2023-04-24T05:07:10;10.00;99.90
35246;DHT22;21379;50.962;6.960;2023-04-24T05:09:40;10.00;99.90
35246;DHT22;21379;50.962;6.960;2023-04-24T05:12:07;10.00;99.90
35246;DHT22;21379;50.962;6.960;2023-04-24T05:14:41;10.00;99.90
35246;DHT22;21379;50.962;6.960;2023-04-24T05:17:11;10.00;99.90
35246;DHT22;21379;50.962;6.960;2023-04-24T05:19:38;10.00;99.90
35246;DHT22;21379;50.962;6.960;2023-04-24T05:22:06;10.00;99.90
35246;DHT22;21379;50.962;6.960;2023-04-24T05:24:36;10.00;99.90
35246;DHT22;21379;50.962;6.960;2023-04-24T05:27:22;10.00;99.90
35246;DHT22;21379;50.962;6.960;2023-04-24T05:29:50;10.00;99.90
35246;DHT22;21379;50.962;6.960;2023-04-24T05:32:17;10.00;99.90
35246;DHT22;21379;50.962;6.960;2023-04-24T05:34:44;10.00;99.90
35246;DHT22;21379;50.962;6.960;2023-04-24T05:37:12;10.10;99.90
35246;DHT22;21379;50.962;6.960;2023-04-24T05:39:40;10.10;99.90
35246;DHT22;21379;50.962;6.960;2023-04-24T05:42:08;10.10;99.90
35246;DHT22;21379;50.962;6.960;2023-04-24T05:44:34;10.10;99.90
35246;DHT22;21379;50.962;6.960;2023-04-24T05:47:03;10.00;99.90
35246;DHT22;21379;50.962;6.960;2023-04-24T05:49:30;9.90;99.90
35246;DHT22;21379;50.962;6.960;2023-04-24T05:51:57;9.80;99.90
35246;DHT22;21379;50.962;6.960;2023-04-24T05:54:24;9.70;99.90
35246;DHT22;21379;50.962;6.960;2023-04-24T05:56:51;9.70;99.90
35246;DHT22;21379;50.962;6.960;2023-04-24T05:59:29;9.70;99.90
35246;DHT22;21379;50.962;6.960;2023-04-24T06:01:57;9.70;99.90
35246;DHT22;21379;50.962;6.960;2023-04-24T06:04:25;9.80;99.90
35246;DHT22;21379;50.962;6.960;2023-04-24T06:06:52;9.80;99.90
35246;DHT22;21379;50.962;6.960;2023-04-24T06:09:22;9.90;99.90
35246;DHT22;21379;50.962;6.960;2023-04-24T06:11:49;9.90;99.90
35246;DHT22;21379;50.962;6.960;2023-04-24T06:14:19;9.90;99.90
35246;DHT22;21379;50.962;6.960;2023-04-24T06:17:06;9.90;99.90
35246;DHT22;21379;50.962;6.960;2023-04-24T06:19:39;9.80;99.90
35246;DHT22;21379;50.962;6.960;2023-04-24T06:22:06;9.70;99.90
35246;DHT22;21379;50.962;6.960;2023-04-24T06:24:34;9.70;99.90
35246;DHT22;21379;50.962;6.960;2023-04-24T06:27:01;9.70;99.90
35246;DHT22;21379;50.962;6.960;2023-04-24T06:29:28;9.70;99.90
35246;DHT22;21379;50.962;6.960;2023-04-24T06:31:55;9.70;99.90
35246;DHT22;21379;50.962;6.960;2023-04-24T06:34:22;9.70;99.90
35246;DHT22;21379;50.962;6.960;2023-04-24T06:36:50;9.60;99.90
35246;DHT22;21379;50.962;6.960;2023-04-24T06:39:17;9.50;99.90
35246;DHT22;21379;50.962;6.960;2023-04-24T06:41:44;9.40;99.90
35246;DHT22;21379;50.962;6.960;2023-04-24T06:44:18;9.30;99.90
35246;DHT22;21379;50.962;6.960;2023-04-24T06:46:45;9.20;99.90
35246;DHT22;21379;50.962;6.960;2023-04-24T06:49:12;9.10;99.90
35246;DHT22;21379;50.962;6.960;2023-04-24T06:51:41;9.00;99.90
35246;DHT22;21379;50.962;6.960;2023-04-24T06:54:09;8.90;99.90
35246;DHT22;21379;50.962;6.960;2023-04-24T06:56:36;8.70;99.90
35246;DHT22;21379;50.962;6.960;2023-04-24T06:59:03;8.70;99.90
35246;DHT22;21379;50.962;6.960;2023-04-24T07:01:30;8.60;99.90
35246;DHT22;21379;50.962;6.960;2023-04-24T07:03:57;8.60;99.90
35246;DHT22;21379;50.962;6.960;2023-04-24T07:06:25;8.50;99.90
35246;DHT22;21379;50.962;6.960;2023-04-24T07:08:52;8.60;99.90
35246;DHT22;21379;50.962;6.960;2023-04-24T07:11:22;8.60;99.90
35246;DHT22;21379;50.962;6.960;2023-04-24T07:13:49;8.60;99.90
35246;DHT22;21379;50.962;6.960;2023-04-24T07:16:16;8.60;99.90
35246;DHT22;21379;50.962;6.960;2023-04-24T07:18:42;8.60;99.90
35246;DHT22;21379;50.962;6.960;2023-04-24T07:21:09;8.60;99.90
35246;DHT22;21379;50.962;6.960;2023-04-24T07:23:37;8.50;99.90
35246;DHT22;21379;50.962;6.960;2023-04-24T07:26:04;8.50;99.90
35246;DHT22;21379;50.962;6.960;2023-04-24T07:28:32;8.50;99.90
35246;DHT22;21379;50.962;6.960;2023-04-24T07:30:59;8.50;99.90
35246;DHT22;21379;50.962;6.960;2023-04-24T07:33:26;8.50;99.90
35246;DHT22;21379;50.962;6.960;2023-04-24T07:35:53;8.50;99.90
35246;DHT22;21379;50.962;6.960;2023-04-24T07:38:20;8.50;99.90
35246;DHT22;21379;50.962;6.960;2023-04-24T07:40:47;8.50;99.90
35246;DHT22;21379;50.962;6.960;2023-04-24T07:43:14;8.50;99.90
35246;DHT22;21379;50.962;6.960;2023-04-24T07:45:43;8.40;99.90
35246;DHT22;21379;50.962;6.960;2023-04-24T07:48:10;8.30;99.90
35246;DHT22;21379;50.962;6.960;2023-04-24T07:50:37;8.20;99.90
35246;DHT22;21379;50.962;6.960;2023-04-24T07:53:03;8.20;99.90
35246;DHT22;21379;50.962;6.960;2023-04-24T07:55:30;8.10;99.90
35246;DHT22;21379;50.962;6.960;2023-04-24T07:57:58;8.10;99.90
35246;DHT22;21379;50.962;6.960;2023-04-24T08:00:25;8.00;99.90
35246;DHT22;21379;50.962;6.960;2023-04-24T08:02:53;7.90;99.90
35246;DHT22;21379;50.962;6.960;2023-04-24T08:05:20;7.90;99.90
35246;DHT22;21379;50.962;6.960;2023-04-24T08:07:47;7.80;99.90
35246;DHT22;21379;50.962;6.960;2023-04-24T08:10:16;7.90;99.90
35246;DHT22;21379;50.962;6.960;2023-04-24T08:12:42;7.80;99.90
35246;DHT22;21379;50.962;6.960;2023-04-24T08:15:10;7.70;99.90
35246;DHT22;21379;50.962;6.960;2023-04-24T08:17:37;7.70;99.90
35246;DHT22;21379;50.962;6.960;2023-04-24T08:20:06;7.60;99.90
35246;DHT22;21379;50.962;6.960;2023-04-24T08:22:38;7.60;99.90
35246;DHT22;21379;50.962;6.960;2023-04-24T08:25:06;7.60;99.90
35246;DHT22;21379;50.962;6.960;2023-04-24T08:27:33;7.60;99.90
35246;DHT22;21379;50.962;6.960;2023-04-24T08:30:02;7.40;99.90
35246;DHT22;21379;50.962;6.960;2023-04-24T08:32:29;7.40;99.90
35246;DHT22;21379;50.962;6.960;2023-04-24T08:34:56;7.40;99.90
35246;DHT22;21379;50.962;6.960;2023-04-24T08:37:26;7.30;99.90
35246;DHT22;21379;50.962;6.960;2023-04-24T08:39:53;7.30;99.90
35246;DHT22;21379;50.962;6.960;2023-04-24T08:42:20;7.30;99.90
35246;DHT22;21379;50.962;6.960;2023-04-24T08:44:49;7.30;99.90
35246;DHT22;21379;50.962;6.960;2023-04-24T08:47:16;7.30;99.90
35246;DHT22;21379;50.962;6.960;2023-04-24T08:49:43;7.30;99.90
35246;DHT22;21379;50.962;6.960;2023-04-24T08:52:12;7.30;99.90
35246;DHT22;21379;50.962;6.960;2023-04-24T08:54:42;7.30;99.90
35246;DHT22;21379;50.962;6.960;2023-04-24T08:57:11;7.30;99.90
35246;DHT22;21379;50.962;6.960;2023-04-24T08:59:40;7.40;99.90
35246;DHT22;21379;50.962;6.960;2023-04-24T09:02:10;7.40;99.90
35246;DHT22;21379;50.962;6.960;2023-04-24T09:04:37;7.30;99.90
35246;DHT22;21379;50.962;6.960;2023-04-24T09:07:06;7.40;99.90
35246;DHT22;21379;50.962;6.960;2023-04-24T09:09:34;7.40;99.90
35246;DHT22;21379;50.962;6.960;2023-04-24T09:12:04;7.50;99.90
35246;DHT22;21379;50.962;6.960;2023-04-24T09:14:31;7.50;99.90
35246;DHT22;21379;50.962;6.960;2023-04-24T09:16:58;7.50;99.90
35246;DHT22;21379;50.962;6.960;2023-04-24T09:19:25;7.50;99.90
35246;DHT22;21379;50.962;6.960;2023-04-24T09:21:53;7.60;99.90
35246;DHT22;21379;50.962;6.960;2023-04-24T09:24:21;7.70;99.90
35246;DHT22;21379;50.962;6.960;2023-04-24T09:26:55;7.70;99.90
35246;DHT22;21379;50.962;6.960;2023-04-24T09:29:24;7.70;99.90
35246;DHT22;21379;50.962;6.960;2023-04-24T09:31:51;7.80;99.90
35246;DHT22;21379;50.962;6.960;2023-04-24T09:34:21;7.80;99.90
35246;DHT22;21379;50.962;6.960;2023-04-24T09:36:49;7.80;99.90
35246;DHT22;21379;50.962;6.960;2023-04-24T09:39:16;7.80;99.90
35246;DHT22;21379;50.962;6.960;2023-04-24T09:41:46;7.90;99.90
35246;DHT22;21379;50.962;6.960;2023-04-24T09:44:14;7.90;99.90
35246;DHT22;21379;50.962;6.960;2023-04-24T09:46:44;8.00;99.90
35246;DHT22;21379;50.962;6.960;2023-04-24T09:49:13;8.10;99.90
35246;DHT22;21379;50.962;6.960;2023-04-24T09:51:40;8.10;99.90
35246;DHT22;21379;50.962;6.960;2023-04-24T09:54:14;8.20;99.90
35246;DHT22;21379;50.962;6.960;2023-04-24T09:56:43;8.30;99.90
35246;DHT22;21379;50.962;6.960;2023-04-24T09:59:10;8.30;99.90
35246;DHT22;21379;50.962;6.960;2023-04-24T10:01:37;8.40;99.90
35246;DHT22;21379;50.962;6.960;2023-04-24T10:04:17;8.50;99.90
35246;DHT22;21379;50.962;6.960;2023-04-24T10:06:45;8.60;99.90
35246;DHT22;21379;50.962;6.960;2023-04-24T10:09:22;8.60;99.90
35246;DHT22;21379;50.962;6.960;2023-04-24T10:12:12;8.50;99.90
35246;DHT22;21379;50.962;6.960;2023-04-24T10:15:03;8.60;99.90
35246;DHT22;21379;50.962;6.960;2023-04-24T10:17:43;8.80;99.90
35246;DHT22;21379;50.962;6.960;2023-04-24T10:20:49;8.90;99.90
35246;DHT22;21379;50.962;6.960;2023-04-24T10:23:34;9.00;99.90
35246;DHT22;21379;50.962;6.960;2023-04-24T10:26:33;9.00;99.90
35246;DHT22;21379;50.962;6.960;2023-04-24T10:29:22;9.20;99.90
35246;DHT22;21379;50.962;6.960;2023-04-24T10:32:15;9.20;99.90
35246;DHT22;21379;50.962;6.960;2023-04-24T10:34:55;9.30;99.90
35246;DHT22;21379;50.962;6.960;2023-04-24T10:41:25;9.30;99.90
35246;DHT22;21379;50.962;6.960;2023-04-24T10:44:06;9.40;99.90
35246;DHT22;21379;50.962;6.960;2023-04-24T10:46:36;9.40;99.90
35246;DHT22;21379;50.962;6.960;2023-04-24T10:49:10;9.30;99.90
35246;DHT22;21379;50.962;6.960;2023-04-24T10:51:59;9.20;99.90
35246;DHT22;21379;50.962;6.960;2023-04-24T10:54:41;9.20;99.90
35246;DHT22;21379;50.962;6.960;2023-04-24T10:57:27;9.20;99.90
35246;DHT22;21379;50.962;6.960;2023-04-24T11:00:18;9.30;99.90
35246;DHT22;21379;50.962;6.960;2023-04-24T11:02:55;9.30;99.90
35246;DHT22;21379;50.962;6.960;2023-04-24T11:05:51;9.30;99.90
35246;DHT22;21379;50.962;6.960;2023-04-24T11:08:32;9.30;99.90
35246;DHT22;21379;50.962;6.960;2023-04-24T11:11:13;9.30;99.90
35246;DHT22;21379;50.962;6.960;2023-04-24T11:14:07;9.20;99.90
35246;DHT22;21379;50.962;6.960;2023-04-24T11:16:42;9.00;99.90
35246;DHT22;21379;50.962;6.960;2023-04-24T11:19:18;8.90;99.90
35246;DHT22;21379;50.962;6.960;2023-04-24T11:21:47;8.70;99.90
35246;DHT22;21379;50.962;6.960;2023-04-24T11:24:23;8.60;99.90
35246;DHT22;21379;50.962;6.960;2023-04-24T11:26:54;8.60;99.90
35246;DHT22;21379;50.962;6.960;2023-04-24T11:29:22;8.70;99.90
35246;DHT22;21379;50.962;6.960;2023-04-24T11:31:49;8.70;99.90
35246;DHT22;21379;50.962;6.960;2023-04-24T11:34:17;9.00;99.90
35246;DHT22;21379;50.962;6.960;2023-04-24T11:36:45;9.40;99.90
35246;DHT22;21379;50.962;6.960;2023-04-24T11:39:12;9.50;99.90
35246;DHT22;21379;50.962;6.960;2023-04-24T11:41:40;9.60;99.90
35246;DHT22;21379;50.962;6.960;2023-04-24T11:44:09;9.60;99.90
35246;DHT22;21379;50.962;6.960;2023-04-24T11:46:37;9.50;99.90
35246;DHT22;21379;50.962;6.960;2023-04-24T11:49:05;9.40;99.90
35246;DHT22;21379;50.962;6.960;2023-04-24T11:51:32;9.50;99.90
35246;DHT22;21379;50.962;6.960;2023-04-24T11:54:00;9.60;99.90
35246;DHT22;21379;50.962;6.960;2023-04-24T11:56:27;9.60;99.90
35246;DHT22;21379;50.962;6.960;2023-04-24T11:58:54;9.60;99.90
35246;DHT22;21379;50.962;6.960;2023-04-24T12:01:22;9.70;99.90
35246;DHT22;21379;50.962;6.960;2023-04-24T12:03:49;9.80;99.90
35246;DHT22;21379;50.962;6.960;2023-04-24T12:06:17;9.90;99.90
35246;DHT22;21379;50.962;6.960;2023-04-24T12:08:47;10.20;99.90
35246;DHT22;21379;50.962;6.960;2023-04-24T12:11:16;10.40;99.90
35246;DHT22;21379;50.962;6.960;2023-04-24T12:13:44;10.60;99.90
35246;DHT22;21379;50.962;6.960;2023-04-24T12:16:12;10.50;99.90
35246;DHT22;21379;50.962;6.960;2023-04-24T12:18:45;10.40;99.90
35246;DHT22;21379;50.962;6.960;2023-04-24T12:21:18;10.30;99.90
35246;DHT22;21379;50.962;6.960;2023-04-24T12:23:45;10.40;99.90
35246;DHT22;21379;50.962;6.960;2023-04-24T12:26:16;10.50;99.90
35246;DHT22;21379;50.962;6.960;2023-04-24T12:28:46;10.70;99.90
35246;DHT22;21379;50.962;6.960;2023-04-24T12:31:13;10.80;99.90
35246;DHT22;21379;50.962;6.960;2023-04-24T12:33:40;10.90;99.90
35246;DHT22;21379;50.962;6.960;2023-04-24T12:36:11;11.10;99.90
35246;DHT22;21379;50.962;6.960;2023-04-24T12:38:39;11.50;99.90
35246;DHT22;21379;50.962;6.960;2023-04-24T12:41:08;12.00;99.90
35246;DHT22;21379;50.962;6.960;2023-04-24T12:43:36;11.90;99.90
35246;DHT22;21379;50.962;6.960;2023-04-24T12:46:03;11.70;99.90
35246;DHT22;21379;50.962;6.960;2023-04-24T12:48:30;11.80;99.90
35246;DHT22;21379;50.962;6.960;2023-04-24T12:51:00;11.70;99.90
35246;DHT22;21379;50.962;6.960;2023-04-24T12:53:29;11.40;99.90
35246;DHT22;21379;50.962;6.960;2023-04-24T12:55:57;11.10;99.90
35246;DHT22;21379;50.962;6.960;2023-04-24T12:58:24;10.90;99.90
35246;DHT22;21379;50.962;6.960;2023-04-24T13:00:51;10.80;99.90
35246;DHT22;21379;50.962;6.960;2023-04-24T13:03:18;10.80;99.90
35246;DHT22;21379;50.962;6.960;2023-04-24T13:05:45;11.00;99.90
35246;DHT22;21379;50.962;6.960;2023-04-24T13:08:12;11.60;99.90
35246;DHT22;21379;50.962;6.960;2023-04-24T13:10:41;11.80;99.90
35246;DHT22;21379;50.962;6.960;2023-04-24T13:13:08;12.00;99.90
35246;DHT22;21379;50.962;6.960;2023-04-24T13:15:35;12.70;99.90
35246;DHT22;21379;50.962;6.960;2023-04-24T13:18:02;13.40;99.90
35246;DHT22;21379;50.962;6.960;2023-04-24T13:20:29;13.20;99.90
35246;DHT22;21379;50.962;6.960;2023-04-24T13:22:56;12.80;99.90
35246;DHT22;21379;50.962;6.960;2023-04-24T13:25:23;12.30;99.90
35246;DHT22;21379;50.962;6.960;2023-04-24T13:27:52;12.10;99.90
35246;DHT22;21379;50.962;6.960;2023-04-24T13:30:19;12.00;99.90
35246;DHT22;21379;50.962;6.960;2023-04-24T13:32:46;11.80;99.90
35246;DHT22;21379;50.962;6.960;2023-04-24T13:35:13;11.90;99.90
35246;DHT22;21379;50.962;6.960;2023-04-24T13:37:40;12.00;99.90
35246;DHT22;21379;50.962;6.960;2023-04-24T13:40:08;12.50;99.90
35246;DHT22;21379;50.962;6.960;2023-04-24T13:42:35;13.00;99.90
35246;DHT22;21379;50.962;6.960;2023-04-24T13:45:04;13.20;99.90
35246;DHT22;21379;50.962;6.960;2023-04-24T13:47:31;12.90;99.90
35246;DHT22;21379;50.962;6.960;2023-04-24T13:49:58;12.50;99.90
35246;DHT22;21379;50.962;6.960;2023-04-24T13:52:25;12.30;99.90
35246;DHT22;21379;50.962;6.960;2023-04-24T13:54:51;12.20;99.90
35246;DHT22;21379;50.962;6.960;2023-04-24T13:57:18;12.10;99.90
35246;DHT22;21379;50.962;6.960;2023-04-24T13:59:45;12.00;99.90
35246;DHT22;21379;50.962;6.960;2023-04-24T14:02:14;12.30;99.90
35246;DHT22;21379;50.962;6.960;2023-04-24T14:04:41;12.40;99.90
35246;DHT22;21379;50.962;6.960;2023-04-24T14:07:07;12.70;99.90
35246;DHT22;21379;50.962;6.960;2023-04-24T14:09:34;12.80;99.90
35246;DHT22;21379;50.962;6.960;2023-04-24T14:12:01;13.20;99.90
35246;DHT22;21379;50.962;6.960;2023-04-24T14:14:29;13.90;99.90
35246;DHT22;21379;50.962;6.960;2023-04-24T14:16:57;14.50;99.90
35246;DHT22;21379;50.962;6.960;2023-04-24T14:19:25;14.30;99.90
35246;DHT22;21379;50.962;6.960;2023-04-24T14:21:52;13.80;99.90
35246;DHT22;21379;50.962;6.960;2023-04-24T14:24:19;14.00;99.90
35246;DHT22;21379;50.962;6.960;2023-04-24T14:26:46;13.70;99.90
35246;DHT22;21379;50.962;6.960;2023-04-24T14:29:13;13.30;99.90
35246;DHT22;21379;50.962;6.960;2023-04-24T14:31:40;13.20;99.90
35246;DHT22;21379;50.962;6.960;2023-04-24T14:34:07;12.80;99.90
35246;DHT22;21379;50.962;6.960;2023-04-24T14:36:36;12.90;99.90
35246;DHT22;21379;50.962;6.960;2023-04-24T14:39:03;13.50;99.90
35246;DHT22;21379;50.962;6.960;2023-04-24T14:41:32;14.30;99.90
35246;DHT22;21379;50.962;6.960;2023-04-24T14:44:01;14.20;99.90
35246;DHT22;21379;50.962;6.960;2023-04-24T14:46:28;13.70;99.90
35246;DHT22;21379;50.962;6.960;2023-04-24T14:48:56;13.60;99.90
35246;DHT22;21379;50.962;6.960;2023-04-24T14:51:23;13.50;99.90
35246;DHT22;21379;50.962;6.960;2023-04-24T14:53:52;13.20;99.90
35246;DHT22;21379;50.962;6.960;2023-04-24T14:56:19;13.20;99.90
35246;DHT22;21379;50.962;6.960;2023-04-24T14:58:46;13.20;99.90
35246;DHT22;21379;50.962;6.960;2023-04-24T15:01:13;13.10;99.90
35246;DHT22;21379;50.962;6.960;2023-04-24T15:03:40;13.30;99.90
35246;DHT22;21379;50.962;6.960;2023-04-24T15:06:07;13.30;99.90
35246;DHT22;21379;50.962;6.960;2023-04-24T15:08:33;13.20;99.90
35246;DHT22;21379;50.962;6.960;2023-04-24T15:11:02;13.20;99.90
35246;DHT22;21379;50.962;6.960;2023-04-24T15:13:29;13.20;99.90
35246;DHT22;21379;50.962;6.960;2023-04-24T15:15:55;13.20;99.90
35246;DHT22;21379;50.962;6.960;2023-04-24T15:18:22;13.20;99.90
35246;DHT22;21379;50.962;6.960;2023-04-24T15:20:49;13.10;99.90
35246;DHT22;21379;50.962;6.960;2023-04-24T15:23:16;13.40;99.90
35246;DHT22;21379;50.962;6.960;2023-04-24T15:25:43;13.40;99.90
35246;DHT22;21379;50.962;6.960;2023-04-24T15:28:12;13.30;99.90
35246;DHT22;21379;50.962;6.960;2023-04-24T15:30:39;13.00;99.90
35246;DHT22;21379;50.962;6.960;2023-04-24T15:33:06;13.10;99.90
35246;DHT22;21379;50.962;6.960;2023-04-24T15:35:34;13.10;99.90
35246;DHT22;21379;50.962;6.960;2023-04-24T15:38:01;13.20;99.90
35246;DHT22;21379;50.962;6.960;2023-04-24T15:40:29;13.00;99.90
35246;DHT22;21379;50.962;6.960;2023-04-24T15:42:56;13.00;99.90
35246;DHT22;21379;50.962;6.960;2023-04-24T15:45:24;13.00;99.90
35246;DHT22;21379;50.962;6.960;2023-04-24T15:47:51;13.10;99.90
35246;DHT22;21379;50.962;6.960;2023-04-24T15:50:18;13.10;99.90
35246;DHT22;21379;50.962;6.960;2023-04-24T15:52:47;12.70;99.90
35246;DHT22;21379;50.962;6.960;2023-04-24T15:55:14;12.80;99.90
35246;DHT22;21379;50.962;6.960;2023-04-24T15:57:41;12.90;99.90